Time;durP1;ratioP1;P1;durP2;ratioP2;P2;SDS_P1;SDS_P2;PMS_P1;PMS_P2;Temp;Humidity;BMP_temperature;BMP_pressure;BME280_temperature;BME280_humidity;BME280_pressure;Samples;Min_cycle;Max_cycle;Signal;HPM_P1;HPM_P2
2022/10/24 00:03:32;;;;;;;49.30;25.00;;;;;;;9.49;100.00;98659.70;214713;1309;22475;-74
2022/10/24 00:08:35;;;;;;;43.70;25.50;;;;;;;9.48;100.00;98651.33;214454;1309;24260;-74
2022/10/24 00:13:38;;;;;;;47.60;25.10;;;;;;;9.47;100.00;98643.25;214737;1309;22536;-74
2022/10/24 00:18:41;;;;;;;41.20;24.00;;;;;;;9.49;100.00;98642.59;214561;1309;25314;-74
2022/10/24 00:23:42;;;;;;;36.70;20.60;;;;;;;9.50;100.00;98642.98;214525;1309;22474;-75
2022/10/24 00:28:44;;;;;;;36.70;21.20;;;;;;;9.54;100.00;98652.58;214603;1309;25389;-74
2022/10/24 00:33:46;;;;;;;34.30;20.00;;;;;;;9.59;100.00;98655.11;214827;1309;24238;-74
2022/10/24 00:38:50;;;;;;;35.10;21.10;;;;;;;9.66;100.00;98660.92;214731;1309;23267;-73
2022/10/24 00:44:11;;;;;;;36.00;20.70;;;;;;;9.72;100.00;98649.66;214764;1309;22492;-74
2022/10/24 00:49:19;;;;;;;34.80;20.50;;;;;;;9.78;100.00;98644.20;214629;1309;22518;-74
2022/10/24 00:54:21;;;;;;;33.60;19.80;;;;;;;9.84;100.00;98645.89;214638;1309;22612;-74
2022/10/24 00:59:25;;;;;;;30.80;18.20;;;;;;;9.90;100.00;98640.30;214718;1309;22467;-74
2022/10/24 01:04:27;;;;;;;27.50;17.70;;;;;;;9.96;100.00;98631.34;214801;1309;23100;-74
2022/10/24 01:10:16;;;;;;;26.90;14.70;;;;;;;10.01;100.00;98630.58;214599;1309;22649;-74
2022/10/24 01:15:45;;;;;;;24.00;14.60;;;;;;;10.05;100.00;98630.85;214819;1309;22548;-74
2022/10/24 01:21:14;;;;;;;27.00;16.80;;;;;;;10.04;100.00;98633.16;214718;1309;25428;-74
2022/10/24 01:26:38;;;;;;;19.80;12.90;;;;;;;10.01;100.00;98631.53;214584;1309;22607;-74
2022/10/24 01:31:50;;;;;;;28.40;17.90;;;;;;;10.00;100.00;98617.90;214744;1309;22468;-73
2022/10/24 01:37:16;;;;;;;24.90;15.70;;;;;;;9.98;100.00;98621.67;214612;1309;25297;-74
2022/10/24 01:42:21;;;;;;;30.50;16.90;;;;;;;9.93;100.00;98636.25;214575;1309;22767;-74
2022/10/24 01:47:28;;;;;;;29.00;17.00;;;;;;;9.92;100.00;98623.69;214804;1309;22639;-74
2022/10/24 01:52:33;;;;;;;28.30;16.30;;;;;;;9.93;100.00;98633.51;214771;1310;25339;-73
2022/10/24 01:57:35;;;;;;;28.50;15.60;;;;;;;9.99;100.00;98641.86;214810;1309;25327;-74
2022/10/24 02:02:44;;;;;;;27.50;16.50;;;;;;;10.05;100.00;98640.00;214508;1310;22491;-75
2022/10/24 02:07:51;;;;;;;24.60;14.90;;;;;;;10.11;100.00;98617.39;214787;1310;159579;-74
2022/10/24 02:13:01;;;;;;;31.30;16.70;;;;;;;10.18;100.00;98632.11;214480;1309;25082;-74
2022/10/24 02:18:03;;;;;;;26.80;16.50;;;;;;;10.23;100.00;98638.27;214753;1309;22756;-74
2022/10/24 02:23:18;;;;;;;28.70;16.10;;;;;;;10.24;100.00;98632.56;214692;1309;24264;-74
2022/10/24 02:28:23;;;;;;;25.90;16.30;;;;;;;10.28;100.00;98617.69;214751;1309;22489;-74
2022/10/24 02:33:28;;;;;;;25.00;15.90;;;;;;;10.31;100.00;98610.84;214563;1310;22478;-75
2022/10/24 02:38:35;;;;;;;23.20;15.00;;;;;;;10.33;100.00;98600.69;214823;1309;22469;-74
2022/10/24 02:43:40;;;;;;;21.70;14.10;;;;;;;10.33;100.00;98602.04;214614;1309;24105;-74
2022/10/24 02:48:48;;;;;;;19.50;12.60;;;;;;;10.32;100.00;98602.41;214963;1310;24253;-75
2022/10/24 02:53:51;;;;;;;22.90;13.90;;;;;;;10.34;100.00;98600.31;214673;1309;22490;-74
2022/10/24 02:58:53;;;;;;;19.90;12.20;;;;;;;10.41;100.00;98603.77;214650;1310;24254;-73
2022/10/24 03:03:54;;;;;;;25.40;14.90;;;;;;;10.49;100.00;98598.98;214584;1309;22530;-74
2022/10/24 03:08:56;;;;;;;23.50;14.80;;;;;;;10.52;100.00;98592.98;214591;1308;22496;-74
2022/10/24 03:13:58;;;;;;;23.30;14.20;;;;;;;10.54;100.00;98589.21;214549;1309;22484;-74
2022/10/24 03:19:00;;;;;;;28.00;14.10;;;;;;;10.59;100.00;98585.92;214605;1309;22937;-73
2022/10/24 03:24:02;;;;;;;26.80;15.80;;;;;;;10.67;100.00;98579.69;214653;1309;22619;-75
2022/10/24 03:29:04;;;;;;;27.80;17.10;;;;;;;10.71;100.00;98581.16;214545;1309;24290;-75
2022/10/24 03:34:06;;;;;;;24.40;15.20;;;;;;;10.74;100.00;98569.58;214635;1309;25274;-75
2022/10/24 03:39:08;;;;;;;21.80;14.50;;;;;;;10.78;100.00;98571.93;214754;1309;24281;-75
2022/10/24 03:44:10;;;;;;;20.40;13.50;;;;;;;10.84;100.00;98570.88;214521;1312;25324;-74
2022/10/24 03:49:12;;;;;;;26.00;15.10;;;;;;;10.88;100.00;98571.97;214719;1309;25364;-74
2022/10/24 03:54:14;;;;;;;21.10;13.30;;;;;;;10.92;100.00;98565.63;214775;1309;23330;-74
2022/10/24 03:59:16;;;;;;;21.40;13.10;;;;;;;10.96;100.00;98566.59;214572;1309;25223;-74
2022/10/24 04:04:18;;;;;;;18.30;11.60;;;;;;;11.02;100.00;98558.49;214713;1309;22466;-75
2022/10/24 04:09:20;;;;;;;18.20;10.30;;;;;;;11.12;100.00;98560.93;214723;1309;23892;-74
2022/10/24 04:14:22;;;;;;;14.80;9.10;;;;;;;11.31;100.00;98579.25;214607;1309;24338;-75
2022/10/24 04:19:23;;;;;;;15.90;9.60;;;;;;;11.47;100.00;98578.39;214667;1309;25300;-74
2022/10/24 04:24:25;;;;;;;13.10;9.60;;;;;;;11.61;100.00;98565.29;214642;1309;22593;-76
2022/10/24 04:29:27;;;;;;;12.10;8.90;;;;;;;11.71;100.00;98559.71;214681;1309;25458;-75
2022/10/24 04:34:29;;;;;;;10.10;7.30;;;;;;;11.81;100.00;98571.64;214684;1309;22570;-74
2022/10/24 04:39:31;;;;;;;9.50;6.40;;;;;;;11.94;100.00;98568.52;214520;1310;23190;-74
2022/10/24 04:44:32;;;;;;;9.30;6.30;;;;;;;12.10;100.00;98567.35;214599;1309;25281;-74
2022/10/24 04:49:34;;;;;;;9.90;5.80;;;;;;;12.24;100.00;98562.31;214566;1309;22430;-74
2022/10/24 04:54:36;;;;;;;8.60;5.40;;;;;;;12.37;100.00;98559.25;214535;1309;23051;-74
2022/10/24 04:59:38;;;;;;;10.60;6.10;;;;;;;12.46;100.00;98559.73;214810;1309;22483;-75
2022/10/24 05:04:39;;;;;;;8.00;5.90;;;;;;;12.54;100.00;98556.44;214624;1309;22459;-74
2022/10/24 05:09:41;;;;;;;9.90;5.70;;;;;;;12.61;100.00;98558.21;214752;1309;24338;-75
2022/10/24 05:14:45;;;;;;;8.90;6.30;;;;;;;12.68;100.00;98546.73;214612;1309;22537;-74
2022/10/24 05:19:47;;;;;;;9.40;5.70;;;;;;;12.71;100.00;98541.92;214756;1309;22508;-75
2022/10/24 05:24:49;;;;;;;8.80;5.60;;;;;;;12.75;100.00;98542.13;214633;1309;22924;-75
2022/10/24 05:29:53;;;;;;;8.90;5.90;;;;;;;12.78;100.00;98547.44;214776;1309;22472;-75
2022/10/24 05:34:54;;;;;;;10.20;6.70;;;;;;;12.82;100.00;98561.29;214608;1309;22519;-75
2022/10/24 05:39:56;;;;;;;9.20;5.60;;;;;;;12.85;100.00;98579.24;214700;1309;23409;-75
2022/10/24 05:44:58;;;;;;;9.80;6.80;;;;;;;12.86;100.00;98588.86;214766;1303;22415;-74
2022/10/24 05:50:00;;;;;;;10.40;6.60;;;;;;;12.85;100.00;98588.71;214966;1299;22482;-74
2022/10/24 05:55:04;;;;;;;11.00;6.50;;;;;;;12.90;100.00;98590.98;215108;1283;22482;-74
2022/10/24 06:00:12;;;;;;;9.80;6.30;;;;;;;12.94;100.00;98602.36;214910;1284;22492;-73
2022/10/24 06:05:16;;;;;;;12.80;6.70;;;;;;;13.01;100.00;98611.27;214988;1284;22593;-73
2022/10/24 06:10:18;;;;;;;9.90;6.20;;;;;;;13.05;100.00;98614.81;215588;1284;22638;-73
2022/10/24 06:15:20;;;;;;;9.60;6.40;;;;;;;13.10;100.00;98617.49;215203;1278;22468;-74
2022/10/24 06:20:22;;;;;;;8.10;6.10;;;;;;;13.16;100.00;98615.09;215262;1284;25310;-74
2022/10/24 06:25:24;;;;;;;12.10;6.80;;;;;;;13.24;100.00;98612.34;215012;1284;24234;-74
2022/10/24 06:30:26;;;;;;;6.90;5.50;;;;;;;13.34;100.00;98609.83;215087;1284;22469;-74
2022/10/24 06:35:28;;;;;;;9.70;6.40;;;;;;;13.48;100.00;98603.29;215143;1285;22468;-73
2022/10/24 06:40:30;;;;;;;7.30;6.50;;;;;;;13.63;100.00;98607.67;214964;1287;22538;-74
2022/10/24 06:45:32;;;;;;;10.10;6.10;;;;;;;13.72;100.00;98628.95;215314;1284;22669;-74
2022/10/24 06:50:35;;;;;;;8.60;5.60;;;;;;;13.82;100.00;98623.05;215230;1277;22463;-73
2022/10/24 06:55:39;;;;;;;12.10;7.60;;;;;;;13.90;100.00;98627.56;216138;1285;23168;-74
2022/10/24 07:00:41;;;;;;;8.30;6.20;;;;;;;13.94;100.00;98638.79;215259;1309;24255;-74
2022/10/24 07:05:43;;;;;;;10.30;6.40;;;;;;;13.94;100.00;98636.83;215200;1284;25267;-74
2022/10/24 07:10:44;;;;;;;9.20;7.00;;;;;;;14.00;100.00;98622.27;215477;1285;25426;-72
2022/10/24 07:15:46;;;;;;;10.70;7.00;;;;;;;14.20;100.00;98630.59;215205;1285;22507;-72
2022/10/24 07:20:48;;;;;;;12.90;7.20;;;;;;;14.33;100.00;98613.04;215094;1285;22890;-74
2022/10/24 07:25:51;;;;;;;9.30;6.00;;;;;;;14.39;100.00;98604.98;215271;1281;22481;-73
2022/10/24 07:30:53;;;;;;;8.50;6.30;;;;;;;14.47;100.00;98618.94;215231;1280;22480;-72
2022/10/24 07:35:55;;;;;;;9.80;6.70;;;;;;;14.53;100.00;98600.11;215348;1287;22481;-73
2022/10/24 07:41:01;;;;;;;10.10;6.90;;;;;;;14.63;100.00;98580.77;215369;1285;25390;-72
2022/10/24 07:46:11;;;;;;;10.70;7.50;;;;;;;14.76;100.00;98602.42;215222;1281;22480;-73
2022/10/24 07:51:13;;;;;;;10.60;6.40;;;;;;;14.80;100.00;98593.67;215302;1288;22496;-75
2022/10/24 07:56:16;;;;;;;13.80;6.90;;;;;;;14.83;100.00;98608.90;215330;1285;22599;-73
2022/10/24 08:01:21;;;;;;;9.80;6.90;;;;;;;14.94;100.00;98619.13;215237;1284;22486;-74
2022/10/24 08:06:29;;;;;;;10.00;6.90;;;;;;;15.08;100.00;98606.55;215134;1285;22578;-73
2022/10/24 08:11:31;;;;;;;11.70;7.10;;;;;;;15.22;100.00;98582.13;215320;1281;24427;-73
2022/10/24 08:16:33;;;;;;;11.90;7.10;;;;;;;15.38;100.00;98560.66;215365;1283;22531;-72
2022/10/24 08:21:35;;;;;;;9.80;7.00;;;;;;;15.50;99.11;98571.21;215162;1278;22490;-72
2022/10/24 08:26:39;;;;;;;10.40;7.10;;;;;;;15.46;98.32;98598.41;215409;1278;25338;-73
2022/10/24 08:31:41;;;;;;;12.40;7.20;;;;;;;15.38;98.11;98603.48;215160;1291;22493;-73
2022/10/24 08:36:43;;;;;;;11.30;7.10;;;;;;;15.34;98.01;98600.59;215207;1285;22472;-74
2022/10/24 08:41:54;;;;;;;10.00;5.90;;;;;;;15.30;97.87;98587.24;215230;1285;22508;-73
2022/10/24 08:47:27;;;;;;;12.20;6.70;;;;;;;15.27;98.28;98587.40;215504;1287;24998;-74
2022/10/24 08:52:42;;;;;;;8.00;6.30;;;;;;;15.33;98.50;98626.05;215093;1277;23601;-74
2022/10/24 08:57:49;;;;;;;10.30;7.00;;;;;;;15.42;98.48;98619.48;215752;1294;22542;-73
2022/10/24 09:03:03;;;;;;;10.00;7.10;;;;;;;15.54;98.60;98606.84;215182;1297;22978;-73
2022/10/24 09:08:31;;;;;;;12.70;7.60;;;;;;;15.74;98.65;98590.52;215512;1277;22608;-72
2022/10/24 09:13:36;;;;;;;10.80;7.10;;;;;;;15.95;97.64;98611.54;215391;1278;24894;-73
2022/10/24 09:18:42;;;;;;;10.60;7.20;;;;;;;16.07;97.46;98632.82;215275;1285;24282;-72
2022/10/24 09:23:45;;;;;;;11.70;6.90;;;;;;;16.17;96.76;98631.64;215207;1285;23516;-73
2022/10/24 09:28:46;;;;;;;12.80;6.80;;;;;;;16.26;96.76;98611.77;215143;1281;22475;-73
2022/10/24 09:33:52;;;;;;;8.20;5.50;;;;;;;16.42;96.60;98610.78;215194;1285;25359;-72
2022/10/24 09:38:54;;;;;;;8.30;5.90;;;;;;;16.63;96.23;98625.75;215178;1281;22487;-74
2022/10/24 09:43:59;;;;;;;8.20;5.50;;;;;;;16.77;95.38;98613.81;215303;1285;25351;-74
2022/10/24 09:49:13;;;;;;;9.80;7.50;;;;;;;16.93;95.23;98591.65;215042;1278;22486;-73
2022/10/24 09:54:18;;;;;;;9.80;6.10;;;;;;;17.13;94.08;98591.09;215244;1283;22666;-74
2022/10/24 09:59:35;;;;;;;8.40;5.40;;;;;;;17.20;93.39;98602.69;215245;1281;22486;-74
2022/10/24 10:04:38;;;;;;;10.30;5.20;;;;;;;17.25;92.46;98603.30;215308;1285;22482;-74
2022/10/24 10:09:49;;;;;;;8.80;5.60;;;;;;;17.30;92.23;98584.35;215216;1285;22528;-75
2022/10/24 10:14:59;;;;;;;15.50;10.60;;;;;;;17.39;91.98;98584.64;215292;1277;22738;-75
2022/10/24 10:20:01;;;;;;;18.00;8.50;;;;;;;17.51;91.17;98597.94;215269;1277;23904;-74
2022/10/24 10:25:04;;;;;;;13.50;8.10;;;;;;;17.51;89.83;98598.08;215281;1285;22638;-74
2022/10/24 10:30:14;;;;;;;7.90;4.60;;;;;;;17.52;89.86;98602.90;215062;1288;22469;-74
2022/10/24 10:35:32;;;;;;;9.30;4.90;;;;;;;17.54;89.40;98609.55;215378;1277;23742;-73
2022/10/24 10:40:43;;;;;;;6.00;5.10;;;;;;;17.66;89.19;98602.98;215326;1284;22907;-73
2022/10/24 10:46:04;;;;;;;11.00;4.80;;;;;;;17.87;88.79;98591.15;215188;1284;24337;-73
2022/10/24 10:51:37;;;;;;;7.00;4.40;;;;;;;18.07;86.76;98586.73;215341;1277;23800;-72
2022/10/24 10:56:55;;;;;;;6.30;4.30;;;;;;;18.34;86.74;98580.29;215213;1277;22624;-72
2022/10/24 11:02:22;;;;;;;7.90;4.90;;;;;;;18.62;87.33;98580.11;215199;1278;22612;-73
2022/10/24 11:07:36;;;;;;;6.80;4.10;;;;;;;18.92;86.64;98595.48;215230;1285;22570;-73
2022/10/24 11:12:40;;;;;;;6.40;3.60;;;;;;;19.19;86.76;98594.40;215360;1277;25366;-73
2022/10/24 11:17:46;;;;;;;5.00;3.80;;;;;;;19.41;86.06;98601.83;215430;1278;22514;-73
2022/10/24 11:22:54;;;;;;;10.30;4.30;;;;;;;19.48;83.64;98601.60;215425;1277;24840;-73
2022/10/24 11:28:20;;;;;;;5.60;3.90;;;;;;;19.51;82.98;98600.19;215452;1278;22495;-72
2022/10/24 11:33:26;;;;;;;4.60;4.00;;;;;;;19.52;81.02;98602.70;215341;1280;22460;-72
2022/10/24 11:38:31;;;;;;;5.20;3.20;;;;;;;19.48;80.75;98595.48;215282;1277;22493;-71
2022/10/24 11:43:39;;;;;;;5.60;4.00;;;;;;;19.41;81.33;98585.55;215451;1277;23089;-72
2022/10/24 11:48:52;;;;;;;6.20;4.20;;;;;;;19.45;80.37;98586.02;215420;1277;24223;-77
2022/10/24 11:53:58;;;;;;;6.80;4.80;;;;;;;19.45;80.40;98588.58;215670;1278;25472;-73
2022/10/24 11:59:04;;;;;;;7.40;4.00;;;;;;;19.41;79.94;98594.91;215298;1278;23653;-73
2022/10/24 12:04:15;;;;;;;6.10;3.40;;;;;;;19.34;79.74;98583.35;215489;1277;22508;-73
2022/10/24 12:09:26;;;;;;;6.70;4.30;;;;;;;19.37;80.15;98571.77;215469;1277;22770;-73
2022/10/24 12:14:40;;;;;;;4.60;4.00;;;;;;;19.38;79.48;98566.16;215042;1309;23252;-73
2022/10/24 12:19:44;;;;;;;6.30;4.40;;;;;;;19.37;80.08;98564.86;215293;1309;22723;-73
2022/10/24 12:24:46;;;;;;;7.60;3.90;;;;;;;19.44;80.42;98569.48;215314;1277;22634;-73
2022/10/24 12:30:14;;;;;;;6.50;4.60;;;;;;;19.46;80.50;98571.61;215362;1277;22514;-73
2022/10/24 12:35:26;;;;;;;6.50;4.40;;;;;;;19.42;80.16;98556.60;215242;1277;22477;-73
2022/10/24 12:40:44;;;;;;;7.80;5.10;;;;;;;19.27;80.16;98547.81;215571;1278;24251;-74
2022/10/24 12:45:46;;;;;;;7.90;5.30;;;;;;;19.19;80.14;98544.51;215419;1277;22643;-74
2022/10/24 12:50:59;;;;;;;7.70;5.90;;;;;;;19.04;79.95;98543.60;215314;1277;25049;-74
2022/10/24 12:56:04;;;;;;;7.50;5.60;;;;;;;18.79;79.19;98546.75;215374;1280;22604;-73
2022/10/24 13:01:34;;;;;;;6.00;4.50;;;;;;;18.49;79.52;98535.15;215264;1277;22507;-73
2022/10/24 13:06:59;;;;;;;6.90;4.80;;;;;;;18.34;80.29;98532.77;215484;1277;22583;-75
2022/10/24 13:12:13;;;;;;;6.80;5.60;;;;;;;18.16;80.53;98538.25;215113;1285;23070;-75
2022/10/24 13:18:00;;;;;;;7.70;4.80;;;;;;;17.95;80.84;98550.84;215323;1277;22991;-74
2022/10/24 13:23:11;;;;;;;9.90;5.90;;;;;;;17.81;81.33;98557.00;215150;1278;23276;-74
2022/10/24 13:28:15;;;;;;;9.30;5.60;;;;;;;17.78;81.75;98550.16;215291;1288;22611;-73
2022/10/24 13:33:37;;;;;;;8.50;5.30;;;;;;;17.71;81.84;98549.34;215274;1277;24305;-73
2022/10/24 13:38:45;;;;;;;5.90;4.70;;;;;;;17.62;82.04;98539.40;215415;1277;22605;-73
2022/10/24 13:43:50;;;;;;;5.90;4.20;;;;;;;17.51;82.26;98541.23;215408;1278;22539;-72
2022/10/24 13:48:54;;;;;;;5.10;3.90;;;;;;;17.36;82.56;98545.09;215235;1279;22523;-76
2022/10/24 13:54:10;;;;;;;7.60;4.70;;;;;;;17.23;82.79;98548.70;215244;1277;25356;-71
2022/10/24 13:59:28;;;;;;;6.40;5.10;;;;;;;17.14;83.08;98543.38;215372;1278;22485;-73
2022/10/24 14:04:31;;;;;;;4.40;3.90;;;;;;;17.05;83.37;98536.54;215097;1278;22502;-73
2022/10/24 14:09:42;;;;;;;5.30;4.00;;;;;;;17.03;83.80;98529.98;214922;1285;147182;-74
2022/10/24 14:14:47;;;;;;;7.80;5.00;;;;;;;17.04;84.05;98534.17;214738;1288;22503;-73
2022/10/24 14:19:59;;;;;;;9.90;5.90;;;;;;;17.00;84.10;98544.05;214571;1309;22478;-75
2022/10/24 14:25:00;;;;;;;5.30;4.30;;;;;;;16.99;84.33;98547.48;214542;1309;22752;-74
2022/10/24 14:30:03;;;;;;;4.80;4.10;;;;;;;16.92;84.46;98549.27;214552;1309;22606;-76
2022/10/24 14:35:10;;;;;;;5.20;4.30;;;;;;;16.82;84.54;98550.84;214827;1304;24488;-75
2022/10/24 14:40:17;;;;;;;5.60;3.50;;;;;;;16.72;84.76;98543.16;214697;1309;22549;-75
2022/10/24 14:45:29;;;;;;;5.60;4.40;;;;;;;16.62;84.99;98545.96;214670;1297;25462;-75
2022/10/24 14:50:33;;;;;;;5.30;3.70;;;;;;;16.51;85.13;98544.70;214661;1309;22630;-74
2022/10/24 14:55:36;;;;;;;5.50;3.60;;;;;;;16.43;85.40;98542.85;214718;1309;22579;-76
2022/10/24 15:00:40;;;;;;;5.50;4.10;;;;;;;16.38;85.61;98542.84;214486;1309;25287;-75
2022/10/24 15:05:54;;;;;;;5.30;4.30;;;;;;;16.34;85.79;98540.77;214590;1309;22481;-74
2022/10/24 15:11:20;;;;;;;5.70;3.90;;;;;;;16.29;85.93;98548.30;214662;1309;24315;-75
2022/10/24 15:16:30;;;;;;;8.60;4.20;;;;;;;16.18;86.04;98556.20;214744;1308;22636;-75
2022/10/24 15:21:39;;;;;;;4.10;3.10;;;;;;;16.05;86.29;98549.93;214624;1309;25401;-75
2022/10/24 15:26:43;;;;;;;7.20;3.80;;;;;;;15.90;86.44;98544.38;214801;1309;22481;-75
2022/10/24 15:31:47;;;;;;;6.50;4.20;;;;;;;15.77;86.78;98532.48;214768;1308;22483;-74
2022/10/24 15:36:50;;;;;;;7.90;4.60;;;;;;;15.64;87.10;98530.61;214651;1309;24252;-75
2022/10/24 15:41:52;;;;;;;6.00;4.30;;;;;;;15.52;87.41;98542.67;214712;1305;22474;-75
2022/10/24 15:46:55;;;;;;;7.10;4.80;;;;;;;15.43;87.70;98550.80;214613;1309;22461;-74
2022/10/24 15:51:58;;;;;;;7.70;4.70;;;;;;;15.34;87.93;98547.54;214523;1307;22608;-75
2022/10/24 15:57:00;;;;;;;6.80;4.40;;;;;;;15.26;88.08;98532.61;214732;1309;22591;-75
2022/10/24 16:02:15;;;;;;;11.90;6.60;;;;;;;15.15;88.37;98538.06;214614;1309;22466;-75
2022/10/24 16:07:17;;;;;;;11.50;6.20;;;;;;;15.06;88.68;98541.64;214706;1299;24269;-74
2022/10/24 16:12:18;;;;;;;9.70;6.60;;;;;;;14.99;89.11;98547.84;214648;1309;25026;-74
2022/10/24 16:17:20;;;;;;;11.10;7.40;;;;;;;14.96;89.60;98547.92;214757;1308;24343;-75
2022/10/24 16:22:22;;;;;;;11.90;7.80;;;;;;;14.95;90.42;98547.89;214621;1309;24366;-75
2022/10/24 16:27:23;;;;;;;11.80;7.10;;;;;;;14.95;90.84;98539.95;214760;1309;25766;-74
2022/10/24 16:32:25;;;;;;;11.20;7.50;;;;;;;14.93;91.04;98540.79;214721;1309;22625;-74
2022/10/24 16:37:27;;;;;;;13.20;7.90;;;;;;;14.90;91.44;98545.09;214799;1309;22602;-75
2022/10/24 16:42:29;;;;;;;10.30;7.50;;;;;;;14.86;91.56;98537.38;214720;1309;25334;-75
2022/10/24 16:47:31;;;;;;;11.70;8.10;;;;;;;14.84;91.99;98540.11;214748;1309;24400;-74
2022/10/24 16:52:33;;;;;;;15.50;8.40;;;;;;;14.82;92.40;98536.13;214790;1309;26265;-75
2022/10/24 16:57:35;;;;;;;12.10;8.00;;;;;;;14.82;92.65;98544.66;214597;1309;25342;-74
2022/10/24 17:02:36;;;;;;;13.50;9.60;;;;;;;14.80;92.91;98550.00;214628;1309;22907;-75
2022/10/24 17:07:39;;;;;;;12.90;9.00;;;;;;;14.79;93.07;98548.60;214486;1309;22495;-74
2022/10/24 17:12:43;;;;;;;15.20;9.20;;;;;;;14.78;93.18;98545.94;214721;1294;24380;-75
2022/10/24 17:17:45;;;;;;;12.40;8.40;;;;;;;14.77;93.58;98549.56;214718;1309;22470;-75
2022/10/24 17:22:47;;;;;;;13.40;8.70;;;;;;;14.79;93.70;98542.23;214614;1309;24443;-74
2022/10/24 17:27:49;;;;;;;13.40;9.00;;;;;;;14.80;94.09;98535.44;214559;1309;22489;-75
2022/10/24 17:32:52;;;;;;;15.30;9.70;;;;;;;14.78;94.00;98541.27;214736;1309;23243;-76
2022/10/24 17:38:12;;;;;;;14.00;9.30;;;;;;;14.75;93.93;98539.12;214655;1309;23241;-75
2022/10/24 17:43:26;;;;;;;15.50;9.30;;;;;;;14.73;94.08;98535.27;214628;1309;22851;-75
2022/10/24 17:48:27;;;;;;;14.70;9.70;;;;;;;14.73;94.06;98537.41;214993;1308;24403;-75
2022/10/24 17:53:29;;;;;;;15.30;10.20;;;;;;;14.71;93.96;98549.30;214755;1309;22600;-75
2022/10/24 17:58:32;;;;;;;13.00;8.70;;;;;;;14.67;93.96;98541.42;214756;1309;25228;-75
2022/10/24 18:03:34;;;;;;;16.10;10.30;;;;;;;14.63;94.06;98534.64;214617;1309;22461;-76
2022/10/24 18:08:36;;;;;;;14.40;10.00;;;;;;;14.60;94.27;98541.86;214585;1309;22485;-75
2022/10/24 18:13:39;;;;;;;16.90;10.30;;;;;;;14.59;94.83;98549.13;214765;1303;22530;-74
2022/10/24 18:18:42;;;;;;;14.20;9.20;;;;;;;14.59;94.92;98547.70;214705;1309;24453;-74
2022/10/24 18:23:45;;;;;;;15.10;9.40;;;;;;;14.59;94.84;98541.58;214640;1309;22496;-75
2022/10/24 18:28:49;;;;;;;13.90;9.80;;;;;;;14.59;94.91;98539.91;214692;1309;22612;-76
2022/10/24 18:33:51;;;;;;;17.20;10.00;;;;;;;14.59;94.94;98542.05;214742;1308;24304;-75
2022/10/24 18:38:55;;;;;;;16.80;11.00;;;;;;;14.59;94.97;98543.99;214814;1309;22521;-75
2022/10/24 18:43:59;;;;;;;14.80;10.00;;;;;;;14.60;94.87;98548.02;214587;1310;22470;-75
2022/10/24 18:49:01;;;;;;;18.00;10.50;;;;;;;14.58;94.77;98547.41;214595;1309;25361;-75
2022/10/24 18:54:06;;;;;;;15.70;9.90;;;;;;;14.59;95.05;98554.02;214612;1309;23769;-73
2022/10/24 18:59:13;;;;;;;13.30;9.10;;;;;;;14.58;95.33;98566.34;214893;1304;22527;-75
2022/10/24 19:04:18;;;;;;;13.90;8.40;;;;;;;14.55;95.59;98568.48;214778;1309;24282;-76
2022/10/24 19:09:22;;;;;;;13.00;7.80;;;;;;;14.51;95.76;98566.55;214630;1309;22484;-76
2022/10/24 19:14:24;;;;;;;13.20;7.10;;;;;;;14.43;96.27;98569.35;214716;1309;24301;-76
2022/10/24 19:19:33;;;;;;;12.90;9.70;;;;;;;14.30;97.42;98565.48;214625;1309;24361;-76
2022/10/24 19:24:35;;;;;;;14.00;9.10;;;;;;;14.18;98.01;98563.64;214866;1309;24376;-76
2022/10/24 19:29:37;;;;;;;16.40;8.90;;;;;;;14.10;98.59;98553.58;214687;1310;22465;-76
2022/10/24 19:34:40;;;;;;;14.70;10.30;;;;;;;14.03;99.29;98552.44;214619;1309;22470;-76
2022/10/24 19:39:42;;;;;;;14.00;8.90;;;;;;;13.96;99.48;98551.95;214593;1309;26455;-75
2022/10/24 19:44:46;;;;;;;14.60;9.40;;;;;;;13.89;99.95;98556.14;214591;1310;24397;-76
2022/10/24 19:49:53;;;;;;;15.80;10.40;;;;;;;13.81;100.00;98558.63;214601;1309;22500;-76
2022/10/24 19:54:55;;;;;;;17.90;11.60;;;;;;;13.74;100.00;98563.20;214777;1309;22469;-77
2022/10/24 19:59:57;;;;;;;15.00;9.60;;;;;;;13.69;100.00;98561.42;214664;1300;22535;-76
2022/10/24 20:04:59;;;;;;;14.70;9.30;;;;;;;13.64;100.00;98566.98;214622;1302;22520;-77
2022/10/24 20:10:00;;;;;;;17.70;10.20;;;;;;;13.61;100.00;98570.59;214633;1309;22470;-78
2022/10/24 20:15:02;;;;;;;20.00;11.30;;;;;;;13.59;100.00;98575.71;214824;1309;24263;-78
2022/10/24 20:20:05;;;;;;;17.00;9.70;;;;;;;13.57;100.00;98571.83;214711;1309;25559;-78
2022/10/24 20:25:07;;;;;;;15.30;10.20;;;;;;;13.55;100.00;98565.42;214639;1309;24747;-78
2022/10/24 20:30:09;;;;;;;16.00;10.30;;;;;;;13.53;100.00;98564.46;214860;1309;25379;-78
2022/10/24 20:35:11;;;;;;;19.90;12.30;;;;;;;13.51;100.00;98563.23;214729;1309;22468;-80
2022/10/24 20:40:13;;;;;;;16.20;10.50;;;;;;;13.50;100.00;98569.58;214696;1309;23150;-78
2022/10/24 20:45:15;;;;;;;17.00;9.60;;;;;;;13.50;100.00;98570.31;214786;1309;24269;-78
2022/10/24 20:50:23;;;;;;;17.80;10.80;;;;;;;13.49;100.00;98569.30;214796;1309;22755;-77
2022/10/24 20:55:26;;;;;;;12.70;8.90;;;;;;;13.49;100.00;98575.22;214786;1304;22484;-77
2022/10/24 21:00:44;;;;;;;17.10;11.00;;;;;;;13.48;100.00;98565.08;214875;1309;25263;-75
2022/10/24 21:05:46;;;;;;;16.60;10.50;;;;;;;13.46;100.00;98560.56;214736;1309;24440;-77
2022/10/24 21:10:47;;;;;;;13.10;9.00;;;;;;;13.46;100.00;98556.02;214766;1309;26467;-77
2022/10/24 21:15:58;;;;;;;14.10;9.50;;;;;;;13.47;100.00;98562.14;214843;1308;22528;-77
2022/10/24 21:21:12;;;;;;;15.90;9.90;;;;;;;13.47;100.00;98560.52;214654;1309;23249;-79
2022/10/24 21:26:14;;;;;;;17.50;11.00;;;;;;;13.48;100.00;98575.09;214637;1309;24076;-77
2022/10/24 21:31:19;;;;;;;18.00;11.50;;;;;;;13.48;100.00;98574.23;214720;1309;22669;-77
2022/10/24 21:36:22;;;;;;;17.40;10.90;;;;;;;13.44;100.00;98570.95;214619;1312;22513;-76
2022/10/24 21:41:26;;;;;;;17.30;11.50;;;;;;;13.40;100.00;98570.46;214809;1303;24084;-77
2022/10/24 21:46:32;;;;;;;17.00;10.70;;;;;;;13.38;100.00;98577.99;214593;1310;25342;-76
2022/10/24 21:51:35;;;;;;;18.50;11.10;;;;;;;13.37;100.00;98577.23;214670;1309;23743;-76
2022/10/24 21:56:37;;;;;;;20.70;12.30;;;;;;;13.36;100.00;98581.45;214778;1310;23750;-76
2022/10/24 22:01:40;;;;;;;21.00;12.90;;;;;;;13.37;100.00;98582.34;214773;1307;22940;-75
2022/10/24 22:06:43;;;;;;;23.90;13.60;;;;;;;13.35;100.00;98579.21;214912;1309;25300;-76
2022/10/24 22:11:45;;;;;;;22.50;13.30;;;;;;;13.32;100.00;98586.77;214842;1310;23057;-78
2022/10/24 22:16:47;;;;;;;22.50;11.60;;;;;;;13.32;100.00;98582.28;214546;1310;24263;-76
2022/10/24 22:21:50;;;;;;;20.50;12.80;;;;;;;13.29;100.00;98581.48;214802;1309;22944;-75
2022/10/24 22:26:52;;;;;;;22.60;12.20;;;;;;;13.27;100.00;98573.06;214789;1310;24401;-78
2022/10/24 22:31:54;;;;;;;22.60;14.40;;;;;;;13.25;100.00;98563.58;214750;1310;24301;-77
2022/10/24 22:37:02;;;;;;;23.30;13.70;;;;;;;13.24;100.00;98553.55;214710;1310;22482;-77
2022/10/24 22:42:14;;;;;;;24.50;14.30;;;;;;;13.23;100.00;98541.80;214629;1310;22554;-76
2022/10/24 22:47:24;;;;;;;22.20;14.30;;;;;;;13.21;100.00;98549.06;214740;1310;24327;-75
2022/10/24 22:52:26;;;;;;;22.00;13.50;;;;;;;13.17;100.00;98555.83;214795;1309;22475;-76
2022/10/24 22:57:29;;;;;;;22.50;14.40;;;;;;;13.14;100.00;98556.52;214710;1309;22501;-76
2022/10/24 23:02:35;;;;;;;30.40;16.70;;;;;;;13.11;100.00;98560.05;214637;1310;25385;-75
2022/10/24 23:08:07;;;;;;;27.70;15.00;;;;;;;13.07;100.00;98552.60;214761;1293;22751;-75
2022/10/24 23:13:15;;;;;;;26.00;14.80;;;;;;;13.04;100.00;98553.23;214718;1300;22561;-76
2022/10/24 23:18:17;;;;;;;24.20;15.30;;;;;;;13.00;100.00;98550.31;214715;1307;22800;-75
2022/10/24 23:23:21;;;;;;;22.00;13.80;;;;;;;12.96;100.00;98545.90;214829;1309;22642;-76